Hilton Head Island, SC

2:20 AM EDT on August 30, 2015 (GMT -0400)
ZipLine Hilton Head | | Change Station
CLOSE
Current Station
Personal Weather Station
Location: Hilton Head Island, SC
Elevation: 46 ft
Nearby Weather Stations

Elev 46 ft 32.19 °N, 80.76 °W | Updated 20 seconds ago

Mostly Cloudy
Mostly Cloudy
82.6 °F
Feels Like 80 °F
N
4.5
Wind Variable Wind from SE
Gusts 7.4 mph

Today
High -- | Low -- °F
--% Chance of Precip.
Yesterday
High -- | Low -- °F
Precip. -- in
6:56 AM 7:50 PM
Full, 100% visible
Pressure 30.10 in
Visibility 10.0 miles
Clouds Scattered Clouds 2100 ft
Mostly Cloudy 2700 ft
Heat Index 80 °F
Dew Point 42 °F
Humidity 24%
Rainfall 0.00 in
Snow Depth Not available.
UV 0 out of 12
Pollen 4.90 out of 12
Air Quality Not available.
Flu Activity Not available.
METAR KHXD 300615Z AUTO 03004KT 10SM VCTS SCT021 BKN027 27/24 A3010 RMK AO2 LTG DSNT E-SW P0000
Pressure 30.10 in
Visibility 10.0 miles
Clouds Scattered Clouds 2100 ft
Mostly Cloudy 2700 ft
Heat Index 80 °F
Dew Point 42 °F
Humidity 24%
Rainfall 0.00 in
Snow Depth Not available.
UV 0 out of 12
Pollen 4.90 out of 12
Air Quality Not available.
Flu Activity Not available.
METAR KHXD 300615Z AUTO 03004KT 10SM VCTS SCT021 BKN027 27/24 A3010 RMK AO2 LTG DSNT E-SW P0000

10-Day Weather Forecast

×

Almanac

Astronomy

Aug. 30, 2015 Rise Set
Actual Time
Civil Twilight
Nautical Twilight
Astronomical Twilight
Moon
Length of Visible Light
Length of Day
Tomorrow will be .
, % of the Moon is Illuminated

Today's Extremes

State Highs State Lows

Community

WunderPhotos

Upload Photos

1,850,904 photos uploaded!

WunderBlogs® & News

Nearby

Air Quality

  Air Quality AQ Index Pollutant
Not available.

Snow Depth

Station Depth Elevation

Earthquake Activity

City Distance Mag. Time & Date
Minimum magnitude displayed is 2.5.

Coastal Water Temperatures

Place Temperature

Stations

Nearby Weather Stations

Station Location Temp. Windchill Dew Point Humidity Wind Precip. Elev Updated Type